createdAt,value
2022-12-27T00:01:45.717Z,13.53
2022-12-27T00:04:14.392Z,19.03
2022-12-27T00:06:44.392Z,16.93
2022-12-27T00:09:12.791Z,18.13
2022-12-27T00:11:41.079Z,17.90
2022-12-27T00:14:09.459Z,15.10
2022-12-27T00:16:37.957Z,13.07
2022-12-27T00:19:07.013Z,18.90
2022-12-27T00:21:36.597Z,24.00
2022-12-27T00:24:06.884Z,28.60
2022-12-27T00:26:36.342Z,29.37
2022-12-27T00:29:05.347Z,29.43
2022-12-27T00:31:34.486Z,30.47
2022-12-27T00:34:05.693Z,28.97
2022-12-27T00:36:34.054Z,29.70
2022-12-27T00:39:02.450Z,35.30
2022-12-27T00:41:32.522Z,28.80
2022-12-27T00:44:00.732Z,28.63
2022-12-27T00:46:29.252Z,25.83
2022-12-27T00:48:58.644Z,27.27
2022-12-27T00:51:27.962Z,28.77
2022-12-27T00:53:56.624Z,21.97
2022-12-27T00:56:27.482Z,21.17
2022-12-27T00:58:58.091Z,16.73
2022-12-27T01:01:29.332Z,18.80
2022-12-27T01:03:58.471Z,17.10
2022-12-27T01:06:29.551Z,12.37
2022-12-27T01:08:58.938Z,16.53
2022-12-27T01:11:28.486Z,11.67
2022-12-27T01:13:59.208Z,14.27
2022-12-27T01:16:29.450Z,12.63
2022-12-27T01:18:58.092Z,11.13
2022-12-27T01:21:27.313Z,11.57
2022-12-27T01:23:56.326Z,8.73
2022-12-27T01:26:25.242Z,9.83
2022-12-27T01:28:54.772Z,8.87
2022-12-27T01:31:28.745Z,9.37
2022-12-27T01:33:58.494Z,9.63
2022-12-27T01:36:28.565Z,12.30
2022-12-27T01:39:00.089Z,15.80
2022-12-27T01:41:48.032Z,16.00
2022-12-27T01:44:51.033Z,18.00
2022-12-27T01:47:34.719Z,22.60
2022-12-27T01:50:12.097Z,19.00
2022-12-27T01:52:45.268Z,18.67
2022-12-27T01:55:25.238Z,20.00
2022-12-27T01:57:56.753Z,18.57
2022-12-27T02:00:25.136Z,19.57
2022-12-27T02:02:55.110Z,18.40
2022-12-27T02:05:25.465Z,18.23
2022-12-27T02:08:06.153Z,21.73
2022-12-27T02:10:34.798Z,19.57
2022-12-27T02:13:06.514Z,17.93
2022-12-27T02:15:35.873Z,17.77
2022-12-27T02:18:05.809Z,17.60
2022-12-27T02:20:49.296Z,17.40
2022-12-27T02:24:03.877Z,17.33
2022-12-27T02:26:53.075Z,20.10
2022-12-27T02:29:31.902Z,18.33
2022-12-27T02:32:07.540Z,17.10
2022-12-27T02:34:44.294Z,17.20
2022-12-27T02:37:14.418Z,17.57
2022-12-27T02:39:47.209Z,18.27
2022-12-27T02:42:34.997Z,16.57
2022-12-27T02:45:25.804Z,17.87
2022-12-27T02:48:11.800Z,21.77
2022-12-27T02:51:08.689Z,15.90
2022-12-27T02:53:48.230Z,16.70
2022-12-27T02:56:42.546Z,17.73
2022-12-27T02:59:24.445Z,13.03
2022-12-27T03:02:28.171Z,15.17
2022-12-27T03:05:23.745Z,15.23
2022-12-27T03:07:59.797Z,12.80
2022-12-27T03:10:52.079Z,15.00
2022-12-27T03:13:46.342Z,14.90
2022-12-27T03:16:22.051Z,14.77
2022-12-27T03:19:13.851Z,13.27
2022-12-27T03:22:03.706Z,16.23
2022-12-27T03:25:06.606Z,11.73
2022-12-27T03:27:37.925Z,13.03
2022-12-27T03:30:26.923Z,13.50
2022-12-27T03:33:14.924Z,13.53
2022-12-27T03:36:10.605Z,14.97
2022-12-27T03:38:43.437Z,13.63
2022-12-27T03:41:35.626Z,14.07
2022-12-27T03:44:24.051Z,12.07
2022-12-27T03:46:55.957Z,10.90
2022-12-27T03:49:28.384Z,11.33
2022-12-27T03:52:03.769Z,14.33
2022-12-27T03:54:34.866Z,12.83
2022-12-27T03:57:05.489Z,13.07
2022-12-27T03:59:33.956Z,12.00
2022-12-27T04:02:03.183Z,13.00
2022-12-27T04:04:31.626Z,14.77
2022-12-27T04:07:01.288Z,13.27
2022-12-27T04:09:47.175Z,14.83
2022-12-27T04:12:32.956Z,22.47
2022-12-27T04:15:18.535Z,24.00
2022-12-27T04:18:04.615Z,17.77
2022-12-27T04:20:50.708Z,15.53
2022-12-27T04:23:38.001Z,14.27
2022-12-27T04:26:24.183Z,14.97
2022-12-27T04:29:09.720Z,19.40
2022-12-27T04:31:55.825Z,16.57
2022-12-27T04:34:45.360Z,17.67
2022-12-27T04:37:15.467Z,16.17
2022-12-27T04:40:12.178Z,18.20
2022-12-27T04:43:13.171Z,16.70
2022-12-27T04:45:58.875Z,16.60
2022-12-27T04:48:47.491Z,15.83
2022-12-27T04:51:33.140Z,17.27
2022-12-27T04:54:15.230Z,17.57
2022-12-27T04:56:45.204Z,18.27
2022-12-27T04:59:30.969Z,25.07
2022-12-27T05:02:05.452Z,30.37
2022-12-27T05:04:35.667Z,30.33
2022-12-27T05:07:19.713Z,27.00
2022-12-27T05:10:05.460Z,26.73
2022-12-27T05:12:52.226Z,23.47
2022-12-27T05:15:20.501Z,19.20
2022-12-27T05:17:48.790Z,19.63
2022-12-27T05:20:17.072Z,17.23
2022-12-27T05:23:03.080Z,18.03
2022-12-27T05:25:38.452Z,17.50
2022-12-27T05:28:10.464Z,14.97
2022-12-27T05:30:40.751Z,15.67
2022-12-27T05:33:09.659Z,15.60
2022-12-27T05:35:38.264Z,14.57
2022-12-27T05:38:06.617Z,13.80
2022-12-27T05:40:34.956Z,16.43
2022-12-27T05:43:04.375Z,20.03
2022-12-27T05:45:34.339Z,34.33
2022-12-27T05:48:02.568Z,50.80
2022-12-27T05:50:30.835Z,39.83
2022-12-27T05:53:24.315Z,18.43
2022-12-27T05:55:55.907Z,17.03
2022-12-27T05:58:24.148Z,11.93
2022-12-27T06:00:53.793Z,16.57
2022-12-27T06:03:22.251Z,15.93
2022-12-27T06:05:50.576Z,16.37
2022-12-27T06:08:18.903Z,16.73
2022-12-27T06:10:47.317Z,15.07
2022-12-27T06:13:15.612Z,21.83
2022-12-27T06:15:43.885Z,17.60
2022-12-27T06:18:13.463Z,15.77
2022-12-27T06:20:41.683Z,16.37
2022-12-27T06:23:09.904Z,14.37
2022-12-27T06:25:39.046Z,12.47
2022-12-27T06:28:07.293Z,13.57
2022-12-27T06:30:36.492Z,13.57
2022-12-27T06:33:04.995Z,14.20
2022-12-27T06:35:34.682Z,15.83
2022-12-27T06:38:02.960Z,11.97
2022-12-27T06:40:31.190Z,13.13
2022-12-27T06:42:59.449Z,14.00
2022-12-27T06:45:27.731Z,13.13
2022-12-27T06:47:56.041Z,17.27
2022-12-27T06:50:24.282Z,17.87
2022-12-27T06:52:54.358Z,21.23
2022-12-27T06:55:22.940Z,25.70
2022-12-27T06:57:51.586Z,24.67
2022-12-27T07:00:20.798Z,27.03
2022-12-27T07:02:49.730Z,31.53
2022-12-27T07:05:18.222Z,39.43
2022-12-27T07:07:46.488Z,29.57
2022-12-27T07:10:16.408Z,28.60
2022-12-27T07:12:44.685Z,24.03
2022-12-27T07:15:13.020Z,28.13
2022-12-27T07:17:41.338Z,40.73
2022-12-27T07:20:10.623Z,39.33
2022-12-27T07:22:38.847Z,28.47
2022-12-27T07:25:08.019Z,26.20
2022-12-27T07:27:38.388Z,21.23
2022-12-27T07:30:08.782Z,22.40
2022-12-27T07:32:37.084Z,20.70
2022-12-27T07:35:06.578Z,19.50
2022-12-27T07:37:34.834Z,16.47
2022-12-27T07:40:05.348Z,19.83
2022-12-27T07:42:33.598Z,14.90
2022-12-27T07:45:03.268Z,15.77
2022-12-27T07:47:31.579Z,16.33
2022-12-27T07:49:59.816Z,15.03
2022-12-27T07:52:28.158Z,12.20
2022-12-27T07:54:56.844Z,12.70
2022-12-27T07:57:25.165Z,14.13
2022-12-27T07:59:53.381Z,13.53
2022-12-27T08:02:23.115Z,12.73
2022-12-27T08:04:51.426Z,11.60
2022-12-27T08:07:21.280Z,12.07
2022-12-27T08:09:49.929Z,13.40
2022-12-27T08:12:18.218Z,10.43
2022-12-27T08:14:46.544Z,11.03
2022-12-27T08:17:20.239Z,11.73
2022-12-27T08:19:52.645Z,15.47
2022-12-27T08:22:20.892Z,9.60
2022-12-27T08:24:49.376Z,10.03
2022-12-27T08:27:23.053Z,10.83
2022-12-27T08:29:51.621Z,18.13
2022-12-27T08:32:19.847Z,13.20
2022-12-27T08:34:50.360Z,11.23
2022-12-27T08:37:18.650Z,15.23
2022-12-27T08:39:46.929Z,11.53
2022-12-27T08:42:15.355Z,13.97
2022-12-27T08:44:44.053Z,12.43
2022-12-27T08:47:12.304Z,9.20
2022-12-27T08:49:40.559Z,11.43
2022-12-27T08:52:10.192Z,12.70
2022-12-27T08:54:38.529Z,11.27
2022-12-27T08:57:07.085Z,13.30
2022-12-27T08:59:35.312Z,14.37
2022-12-27T09:02:03.678Z,11.63
2022-12-27T09:04:32.095Z,11.43
2022-12-27T09:07:00.304Z,8.70
2022-12-27T09:09:30.185Z,10.20
2022-12-27T09:11:58.440Z,11.67
2022-12-27T09:14:26.739Z,11.83
2022-12-27T09:16:55.356Z,11.07
2022-12-27T09:19:23.621Z,11.20
2022-12-27T09:21:51.949Z,14.23
2022-12-27T09:24:20.284Z,10.67
2022-12-27T09:26:49.973Z,13.10
2022-12-27T09:29:18.553Z,11.80
2022-12-27T09:31:46.832Z,11.77
2022-12-27T09:34:15.225Z,13.07
2022-12-27T09:36:43.508Z,11.83
2022-12-27T09:39:13.739Z,14.33
2022-12-27T09:42:45.945Z,12.73
2022-12-27T09:44:50.820Z,13.90
2022-12-27T09:47:23.359Z,11.97
2022-12-27T09:49:56.547Z,10.47
2022-12-27T09:52:29.267Z,15.30
2022-12-27T09:55:05.393Z,18.80
2022-12-27T09:57:38.777Z,14.83
2022-12-27T10:00:16.027Z,14.57
2022-12-27T10:02:45.406Z,11.47
2022-12-27T10:05:22.519Z,10.83
2022-12-27T10:08:05.762Z,12.03
2022-12-27T10:10:43.595Z,9.10
2022-12-27T10:13:30.635Z,10.23
2022-12-27T10:19:17.079Z,12.37
2022-12-27T10:21:57.413Z,13.40
2022-12-27T10:24:31.963Z,12.67
2022-12-27T10:27:00.712Z,11.23
2022-12-27T10:29:32.939Z,13.63
2022-12-27T10:32:01.817Z,10.07
2022-12-27T10:34:30.799Z,14.63
2022-12-27T10:36:59.079Z,14.03
2022-12-27T10:39:29.229Z,12.83
2022-12-27T10:42:02.356Z,12.13
2022-12-27T10:44:32.030Z,15.33
2022-12-27T10:47:00.922Z,13.50
2022-12-27T10:49:30.392Z,11.23
2022-12-27T10:52:07.484Z,10.97
2022-12-27T10:54:35.829Z,10.57
2022-12-27T10:57:19.769Z,9.87
2022-12-27T11:00:14.880Z,10.13
2022-12-27T11:02:51.150Z,10.20
2022-12-27T11:05:23.740Z,12.57
2022-12-27T11:07:52.275Z,10.10
2022-12-27T11:10:23.353Z,8.53
2022-12-27T11:12:59.423Z,9.83
2022-12-27T11:15:31.003Z,8.23
2022-12-27T11:18:03.322Z,9.57
2022-12-27T11:20:33.870Z,9.80
2022-12-27T11:23:05.305Z,10.30
2022-12-27T11:25:35.554Z,9.57
2022-12-27T11:28:06.725Z,10.60
2022-12-27T11:30:39.852Z,11.37
2022-12-27T11:33:24.659Z,10.20
2022-12-27T11:35:56.774Z,9.67
2022-12-27T11:38:27.675Z,9.77
2022-12-27T11:41:03.277Z,8.60
2022-12-27T11:43:36.712Z,10.60
2022-12-27T11:46:13.184Z,10.40
2022-12-27T11:48:46.605Z,7.07
2022-12-27T11:51:37.516Z,9.23
2022-12-27T11:54:21.596Z,10.03
2022-12-27T11:56:53.086Z,9.67
2022-12-27T11:59:40.515Z,9.73
2022-12-27T12:02:29.018Z,9.07
2022-12-27T12:05:30.647Z,9.10
2022-12-27T12:08:20.727Z,11.53
2022-12-27T12:10:54.165Z,8.70
2022-12-27T12:13:47.097Z,10.70
2022-12-27T12:16:48.136Z,9.70
2022-12-27T12:19:35.515Z,9.67
2022-12-27T12:22:23.885Z,13.27
2022-12-27T12:25:23.196Z,7.63
2022-12-27T12:28:23.125Z,9.57
2022-12-27T12:31:08.106Z,9.03
2022-12-27T12:33:49.596Z,8.47
2022-12-27T12:36:50.775Z,5.97
2022-12-27T12:39:33.099Z,7.80
2022-12-27T12:42:11.846Z,8.70
2022-12-27T12:44:55.881Z,6.63
2022-12-27T12:47:40.817Z,6.93
2022-12-27T12:50:28.278Z,10.90
2022-12-27T12:53:31.251Z,6.13
2022-12-27T12:56:15.256Z,23.07
2022-12-27T12:58:53.782Z,8.33
2022-12-27T13:01:34.417Z,7.30
2022-12-27T13:04:38.182Z,6.93
2022-12-27T13:07:25.891Z,8.13
2022-12-27T13:10:16.165Z,7.67
2022-12-27T13:12:53.027Z,6.97
2022-12-27T13:15:32.652Z,9.97
2022-12-27T13:18:12.146Z,8.37
2022-12-27T13:20:57.354Z,6.00
2022-12-27T13:23:39.460Z,8.47
2022-12-27T13:26:20.728Z,6.63
2022-12-27T13:29:02.249Z,6.43
2022-12-27T13:31:41.119Z,8.17
2022-12-27T13:34:22.452Z,6.47
2022-12-27T13:37:07.148Z,6.30
2022-12-27T13:39:47.727Z,7.77
2022-12-27T13:42:44.510Z,6.97
2022-12-27T13:45:26.867Z,6.03
2022-12-27T13:48:10.199Z,8.27
2022-12-27T13:50:52.912Z,7.40
2022-12-27T13:54:10.530Z,6.97
2022-12-27T13:56:54.381Z,7.93
2022-12-27T14:00:04.244Z,7.47
2022-12-27T14:03:21.313Z,6.00
2022-12-27T14:06:15.522Z,7.30
2022-12-27T14:09:06.598Z,8.57
2022-12-27T14:11:47.573Z,5.70
2022-12-27T14:14:18.687Z,9.00
2022-12-27T14:17:01.559Z,6.60
2022-12-27T14:19:52.931Z,7.43
2022-12-27T14:22:52.419Z,7.37
2022-12-27T14:25:52.600Z,6.07
2022-12-27T14:28:48.620Z,8.37
2022-12-27T14:31:41.642Z,7.53
2022-12-27T14:34:54.567Z,6.27
2022-12-27T14:37:59.066Z,6.73
2022-12-27T14:41:07.717Z,16.07
2022-12-27T14:44:21.583Z,6.57
2022-12-27T14:47:18.732Z,5.13
2022-12-27T14:50:16.736Z,10.50
2022-12-27T14:53:10.928Z,7.87
2022-12-27T14:56:03.657Z,5.23
2022-12-27T14:58:57.643Z,8.37
2022-12-27T15:01:41.219Z,9.73
2022-12-27T15:04:31.364Z,7.27
2022-12-27T15:07:41.546Z,5.27
2022-12-27T15:10:19.423Z,5.83
2022-12-27T15:12:56.323Z,7.50
2022-12-27T15:15:43.473Z,5.73
2022-12-27T15:18:39.289Z,7.00
2022-12-27T15:21:36.997Z,5.93
2022-12-27T15:24:22.515Z,8.00
2022-12-27T15:26:59.182Z,6.00
2022-12-27T15:29:47.378Z,9.57
2022-12-27T15:32:27.115Z,9.10
2022-12-27T15:35:11.924Z,8.73
2022-12-27T15:37:54.527Z,9.50
2022-12-27T15:40:39.463Z,7.50
2022-12-27T15:43:22.514Z,6.37
2022-12-27T15:46:08.353Z,5.37
2022-12-27T15:49:10.753Z,8.63
2022-12-27T15:51:47.411Z,7.53
2022-12-27T15:54:54.210Z,5.70
2022-12-27T15:57:42.002Z,6.10
2022-12-27T16:00:33.389Z,5.53
2022-12-27T16:03:04.222Z,7.63
2022-12-27T16:05:52.305Z,6.80
2022-12-27T16:08:34.298Z,6.30
2022-12-27T16:11:05.337Z,11.70
2022-12-27T16:14:14.420Z,8.33
2022-12-27T16:16:54.836Z,8.43
2022-12-27T16:19:56.437Z,6.40
2022-12-27T16:22:31.788Z,7.20
2022-12-27T16:25:08.927Z,9.43
2022-12-27T16:27:37.254Z,6.63
2022-12-27T16:30:06.213Z,8.20
2022-12-27T16:32:35.941Z,7.83
2022-12-27T16:35:16.237Z,7.60
2022-12-27T16:37:52.532Z,9.03
2022-12-27T16:40:50.489Z,7.73
2022-12-27T16:43:43.459Z,8.70
2022-12-27T16:47:04.243Z,14.30
2022-12-27T16:50:05.512Z,6.93
2022-12-27T16:52:53.727Z,7.30
2022-12-27T16:55:41.740Z,8.07
2022-12-27T16:58:25.542Z,8.03
2022-12-27T17:00:54.753Z,7.50
2022-12-27T17:03:48.420Z,6.40
2022-12-27T17:06:55.900Z,9.80
2022-12-27T17:09:44.249Z,9.30
2022-12-27T17:12:25.498Z,11.40
2022-12-27T17:15:02.125Z,8.33
2022-12-27T17:17:31.103Z,12.17
2022-12-27T17:20:03.955Z,9.00
2022-12-27T17:22:35.210Z,9.93
2022-12-27T17:25:06.234Z,8.40
2022-12-27T17:27:51.379Z,7.50
2022-12-27T17:30:21.657Z,9.53
2022-12-27T17:33:19.449Z,9.57
2022-12-27T17:36:22.580Z,8.73
2022-12-27T17:39:00.759Z,11.63
2022-12-27T17:41:59.180Z,8.83
2022-12-27T17:44:41.140Z,9.00
2022-12-27T17:47:23.883Z,9.03
2022-12-27T17:49:52.649Z,11.77
2022-12-27T17:52:52.588Z,8.07
2022-12-27T17:55:40.444Z,10.97
2022-12-27T17:58:12.030Z,8.87
2022-12-27T18:00:45.234Z,7.10
2022-12-27T18:03:15.105Z,10.33
2022-12-27T18:05:47.149Z,8.73
2022-12-27T18:08:23.395Z,8.90
2022-12-27T18:10:52.014Z,8.80
2022-12-27T18:13:25.531Z,7.43
2022-12-27T18:15:54.275Z,8.73
2022-12-27T18:18:25.291Z,8.03
2022-12-27T18:20:57.175Z,8.50
2022-12-27T18:23:25.620Z,10.23
2022-12-27T18:25:57.192Z,9.80
2022-12-27T18:28:32.956Z,6.73
2022-12-27T18:31:07.943Z,8.30
2022-12-27T18:33:41.189Z,8.43
2022-12-27T18:36:14.569Z,10.13
2022-12-27T18:38:45.031Z,20.33
2022-12-27T18:41:16.523Z,9.07
2022-12-27T18:43:49.149Z,8.40
2022-12-27T18:46:22.870Z,10.90
2022-12-27T18:48:51.525Z,8.27
2022-12-27T18:51:20.173Z,7.77
2022-12-27T18:53:48.514Z,10.43
2022-12-27T18:56:30.472Z,8.23
2022-12-27T18:59:06.486Z,8.43
2022-12-27T19:01:41.742Z,6.50
2022-12-27T19:04:24.729Z,8.40
2022-12-27T19:07:08.938Z,6.97
2022-12-27T19:09:40.764Z,5.90
2022-12-27T19:12:22.553Z,6.63
2022-12-27T19:14:52.433Z,7.13
2022-12-27T19:17:23.400Z,6.87
2022-12-27T19:19:54.558Z,5.27
2022-12-27T19:22:42.299Z,6.80
2022-12-27T19:25:22.878Z,8.17
2022-12-27T19:27:59.564Z,6.03
2022-12-27T19:30:39.055Z,6.63
2022-12-27T19:33:14.332Z,5.70
2022-12-27T19:35:43.832Z,5.17
2022-12-27T19:38:20.636Z,5.50
2022-12-27T19:40:50.944Z,5.50
2022-12-27T19:43:19.799Z,9.03
2022-12-27T19:45:49.538Z,7.87
2022-12-27T19:48:17.878Z,6.43
2022-12-27T19:50:49.285Z,6.53
2022-12-27T19:53:20.035Z,5.77
2022-12-27T19:55:48.377Z,8.57
2022-12-27T19:58:21.751Z,6.63
2022-12-27T20:00:51.416Z,6.80
2022-12-27T20:03:20.471Z,7.57
2022-12-27T20:06:13.765Z,7.60
2022-12-27T20:08:40.627Z,7.07
2022-12-27T20:11:15.226Z,8.97
2022-12-27T20:13:43.683Z,11.13
2022-12-27T20:16:14.292Z,9.83
2022-12-27T20:18:43.412Z,7.43
2022-12-27T20:21:14.415Z,9.33
2022-12-27T20:23:43.344Z,8.13
2022-12-27T20:26:12.355Z,7.93
2022-12-27T20:28:41.163Z,7.87
2022-12-27T20:31:10.810Z,7.53
2022-12-27T20:33:40.508Z,7.40
2022-12-27T20:36:10.287Z,5.97
2022-12-27T20:38:39.727Z,7.90
2022-12-27T20:41:09.178Z,11.30
2022-12-27T20:43:37.685Z,9.70
2022-12-27T20:46:07.636Z,10.57
2022-12-27T20:48:38.539Z,8.37
2022-12-27T20:51:09.717Z,8.10
2022-12-27T20:53:38.080Z,13.83
2022-12-27T20:56:08.945Z,8.90
2022-12-27T20:58:37.321Z,8.60
2022-12-27T21:01:10.269Z,8.70
2022-12-27T21:03:39.688Z,11.10
2022-12-27T21:06:11.810Z,9.10
2022-12-27T21:08:46.653Z,10.07
2022-12-27T21:11:19.399Z,8.87
2022-12-27T21:13:48.889Z,10.23
2022-12-27T21:16:19.554Z,9.70
2022-12-27T21:18:47.947Z,8.03
2022-12-27T21:21:19.969Z,8.97
2022-12-27T21:23:48.724Z,9.60
2022-12-27T21:26:20.058Z,9.63
2022-12-27T21:28:48.703Z,9.23
2022-12-27T21:31:18.543Z,8.43
2022-12-27T21:33:47.674Z,11.47
2022-12-27T21:36:19.501Z,8.67
2022-12-27T21:38:48.036Z,10.17
2022-12-27T21:41:18.933Z,9.57
2022-12-27T21:43:49.252Z,11.53
2022-12-27T21:46:19.515Z,8.73
2022-12-27T21:48:48.510Z,8.80
2022-12-27T21:51:19.869Z,9.50
2022-12-27T21:53:48.210Z,8.40
2022-12-27T21:56:17.726Z,11.63
2022-12-27T21:58:46.594Z,11.23
2022-12-27T22:01:17.724Z,12.27
2022-12-27T22:03:48.077Z,9.70
2022-12-27T22:06:20.400Z,9.23
2022-12-27T22:08:50.292Z,8.67
2022-12-27T22:11:19.528Z,7.30
2022-12-27T22:13:47.939Z,10.40
2022-12-27T22:16:17.793Z,11.47
2022-12-27T22:18:46.823Z,12.27
2022-12-27T22:21:18.671Z,8.97
2022-12-27T22:23:49.202Z,8.87
2022-12-27T22:26:19.546Z,10.07
2022-12-27T22:28:48.129Z,9.20
2022-12-27T22:31:18.043Z,10.00
2022-12-27T22:33:47.150Z,9.20
2022-12-27T22:36:18.551Z,9.83
2022-12-27T22:38:49.769Z,10.57
2022-12-27T22:41:20.159Z,8.80
2022-12-27T22:43:52.346Z,10.90
2022-12-27T22:46:21.385Z,6.67
2022-12-27T22:48:53.861Z,10.63
2022-12-27T22:51:25.311Z,10.30
2022-12-27T22:53:53.989Z,10.47
2022-12-27T22:56:24.406Z,6.83
2022-12-27T22:58:52.995Z,9.23
2022-12-27T23:01:24.602Z,10.70
2022-12-27T23:03:52.884Z,11.73
2022-12-27T23:06:22.995Z,10.73
2022-12-27T23:08:51.354Z,13.97
2022-12-27T23:11:21.732Z,8.77
2022-12-27T23:13:54.571Z,8.20
2022-12-27T23:16:22.835Z,8.77
2022-12-27T23:18:51.120Z,8.23
2022-12-27T23:21:23.671Z,9.30
2022-12-27T23:23:53.995Z,9.93
2022-12-27T23:26:24.211Z,11.20
2022-12-27T23:28:53.820Z,10.90
2022-12-27T23:31:23.647Z,11.00
2022-12-27T23:33:52.511Z,10.97
2022-12-27T23:36:21.553Z,8.13
2022-12-27T23:38:50.645Z,10.97
2022-12-27T23:41:21.962Z,9.20
2022-12-27T23:43:53.814Z,9.00
2022-12-27T23:46:26.652Z,11.83
2022-12-27T23:48:55.081Z,8.03
2022-12-27T23:51:23.536Z,10.17
2022-12-27T23:53:52.210Z,8.07
2022-12-27T23:56:23.992Z,10.30
2022-12-27T23:58:54.805Z,9.33
